Time;durP1;ratioP1;P1;durP2;ratioP2;P2;SDS_P1;SDS_P2;PMS_P1;PMS_P2;Temp;Humidity;BMP_temperature;BMP_pressure;BME280_temperature;BME280_humidity;BME280_pressure;Samples;Min_cycle;Max_cycle;Signal;HPM_P1;HPM_P2
2021/06/01 00:01:35;;;;;;;3.73;2.93;;;14.60;99.90;;;;;;4935959;29;20392;-77
2021/06/01 00:04:01;;;;;;;4.13;3.20;;;14.60;99.90;;;;;;4935483;29;20518;-75
2021/06/01 00:06:26;;;;;;;4.37;2.80;;;14.70;99.90;;;;;;4935786;29;20504;-76
2021/06/01 00:08:53;;;;;;;3.63;2.50;;;14.70;99.90;;;;;;4936023;29;20484;-75
2021/06/01 00:11:19;;;;;;;3.83;2.63;;;14.60;99.90;;;;;;4935916;29;20643;-76
2021/06/01 00:13:45;;;;;;;3.77;3.00;;;14.60;99.90;;;;;;4935442;29;20820;-75
2021/06/01 00:16:12;;;;;;;4.63;3.20;;;14.60;99.90;;;;;;4935986;29;20421;-75
2021/06/01 00:18:39;;;;;;;6.67;2.90;;;14.50;99.90;;;;;;4935634;29;20253;-75
2021/06/01 00:21:05;;;;;;;3.30;2.30;;;14.50;99.90;;;;;;4935586;29;20948;-75
2021/06/01 00:23:35;;;;;;;4.03;2.90;;;14.50;99.90;;;;;;4935419;29;20416;-77
2021/06/01 00:26:01;;;;;;;2.90;2.53;;;14.50;99.90;;;;;;4935614;29;20752;-76
2021/06/01 00:28:26;;;;;;;4.00;2.73;;;14.40;99.90;;;;;;4935795;29;20816;-76
2021/06/01 00:30:52;;;;;;;3.50;2.60;;;14.40;99.90;;;;;;4934285;29;20512;-76
2021/06/01 00:33:17;;;;;;;3.33;3.00;;;14.40;99.90;;;;;;4935331;29;20578;-76
2021/06/01 00:35:43;;;;;;;4.60;2.73;;;14.40;99.90;;;;;;4935689;29;20189;-75
2021/06/01 00:38:09;;;;;;;3.00;2.33;;;14.40;99.90;;;;;;4935706;29;20264;-76
2021/06/01 00:40:34;;;;;;;3.10;2.77;;;14.40;99.90;;;;;;4935496;29;20754;-76
2021/06/01 00:43:00;;;;;;;3.83;2.60;;;14.40;99.90;;;;;;4937324;29;20213;-76
2021/06/01 00:45:27;;;;;;;4.20;2.70;;;14.30;99.90;;;;;;4937711;29;20807;-75
2021/06/01 00:47:53;;;;;;;3.10;2.60;;;14.30;99.90;;;;;;4939239;29;20174;-76
2021/06/01 00:50:27;;;;;;;2.90;2.57;;;14.20;99.90;;;;;;4939027;29;20421;-76
2021/06/01 00:52:54;;;;;;;2.67;2.40;;;14.20;99.90;;;;;;4938502;29;20820;-76
2021/06/01 00:55:21;;;;;;;4.33;2.60;;;14.20;99.90;;;;;;4938863;29;20876;-76
2021/06/01 00:57:46;;;;;;;8.20;2.63;;;14.20;99.90;;;;;;4937605;29;20911;-77
2021/06/01 01:01:11;;;;;;;3.57;3.03;;;14.20;99.90;;;;;;4938617;29;20465;-76
2021/06/01 01:03:01;;;;;;;3.50;2.77;;;14.10;99.90;;;;;;4931058;29;20229;-76
2021/06/01 01:05:33;;;;;;;5.13;3.50;;;14.00;99.90;;;;;;4938628;29;20392;-77
2021/06/01 01:08:34;;;;;;;3.07;2.77;;;13.90;99.90;;;;;;4938728;29;20753;-76
2021/06/01 01:11:09;;;;;;;4.53;3.10;;;13.90;99.90;;;;;;4938315;29;20803;-76
2021/06/01 01:13:51;;;;;;;3.87;3.00;;;13.90;99.90;;;;;;4938100;29;20450;-77
2021/06/01 01:16:20;;;;;;;5.93;3.90;;;13.80;99.90;;;;;;4937128;29;20764;-77
2021/06/01 01:18:53;;;;;;;6.20;3.07;;;13.70;99.90;;;;;;4938304;29;20480;-77
2021/06/01 01:21:35;;;;;;;5.80;3.50;;;13.70;99.90;;;;;;4936940;29;20552;-76
2021/06/01 01:24:15;;;;;;;5.10;4.00;;;13.70;99.90;;;;;;4938041;29;20408;-75
2021/06/01 01:26:49;;;;;;;5.20;3.73;;;13.60;99.90;;;;;;4938214;29;20431;-76
2021/06/01 01:29:20;;;;;;;8.57;4.57;;;13.60;99.90;;;;;;4938792;29;20420;-79
2021/06/01 01:31:54;;;;;;;6.03;3.60;;;13.60;99.90;;;;;;4939399;29;20492;-76
2021/06/01 01:34:21;;;;;;;9.50;4.30;;;13.50;99.90;;;;;;4942246;29;20427;-77
2021/06/01 01:36:47;;;;;;;5.23;3.10;;;13.40;99.90;;;;;;4938667;29;20476;-78
2021/06/01 01:39:15;;;;;;;4.63;3.70;;;13.50;99.90;;;;;;4937876;29;20418;-78
2021/06/01 01:41:41;;;;;;;7.17;3.57;;;13.50;99.90;;;;;;4937979;29;20396;-77
2021/06/01 01:44:15;;;;;;;3.70;3.20;;;13.40;99.90;;;;;;4937690;29;20591;-77
2021/06/01 01:49:20;;;;;;;4.33;3.00;;;13.40;99.90;;;;;;4938075;29;20454;-78
2021/06/01 01:51:48;;;;;;;6.10;3.80;;;13.30;99.90;;;;;;4937746;29;20421;-78
2021/06/01 01:54:22;;;;;;;4.83;3.40;;;13.20;99.90;;;;;;4937288;29;20445;-77
2021/06/01 01:56:52;;;;;;;7.33;3.60;;;13.10;99.90;;;;;;4937633;29;20430;-77
2021/06/01 01:59:21;;;;;;;5.10;3.20;;;13.00;99.90;;;;;;4936357;29;20483;-77
2021/06/01 02:01:49;;;;;;;12.00;3.90;;;13.00;99.90;;;;;;4936415;29;20434;-78
2021/06/01 02:04:18;;;;;;;6.73;4.13;;;12.90;99.90;;;;;;4937267;29;20431;-77
2021/06/01 02:06:45;;;;;;;5.93;3.40;;;12.90;99.90;;;;;;4937577;29;20395;-77
2021/06/01 02:09:11;;;;;;;7.67;3.87;;;12.80;99.90;;;;;;4937242;29;20437;-77
2021/06/01 02:11:37;;;;;;;7.67;4.60;;;12.70;99.90;;;;;;4937248;29;20881;-78
2021/06/01 02:14:04;;;;;;;8.90;4.07;;;12.70;99.90;;;;;;4937088;29;20517;-78
2021/06/01 02:16:31;;;;;;;6.03;4.00;;;12.80;99.90;;;;;;4935908;29;20190;-78
2021/06/01 02:18:58;;;;;;;10.70;4.80;;;12.60;99.90;;;;;;4937180;29;20464;-78
2021/06/01 02:24:25;;;;;;;6.30;4.00;;;12.40;99.90;;;;;;4935650;29;20806;-78
2021/06/01 02:27:19;;;;;;;7.80;4.40;;;12.40;99.90;;;;;;4937074;29;20501;-78
2021/06/01 02:30:00;;;;;;;6.27;3.77;;;12.30;99.90;;;;;;4936884;29;20384;-78
2021/06/01 02:32:53;;;;;;;9.67;4.57;;;12.20;99.90;;;;;;4937153;29;20417;-78
2021/06/01 02:35:42;;;;;;;5.87;4.63;;;12.20;99.90;;;;;;4934074;29;20508;-78
2021/06/01 02:38:09;;;;;;;12.53;4.40;;;12.10;99.90;;;;;;4936843;29;20428;-78
2021/06/01 02:40:36;;;;;;;5.57;4.40;;;12.00;99.90;;;;;;4936910;29;20517;-78
2021/06/01 02:43:10;;;;;;;7.60;4.20;;;11.90;99.90;;;;;;4936596;29;20737;-78
2021/06/01 02:45:38;;;;;;;5.20;3.90;;;11.90;99.90;;;;;;4935345;29;20430;-78
2021/06/01 02:48:05;;;;;;;7.23;4.00;;;11.80;99.90;;;;;;4936609;29;20421;-78
2021/06/01 02:50:31;;;;;;;10.43;5.00;;;11.80;99.90;;;;;;4935662;29;20400;-78
2021/06/01 02:53:01;;;;;;;9.60;5.00;;;11.70;99.90;;;;;;4936497;29;20479;-78
2021/06/01 02:55:26;;;;;;;6.77;4.37;;;11.70;99.90;;;;;;4936834;29;20395;-79
2021/06/01 02:57:53;;;;;;;7.50;4.47;;;11.60;99.90;;;;;;4936494;29;20392;-78
2021/06/01 03:00:23;;;;;;;8.43;4.60;;;11.50;99.90;;;;;;4936452;29;20678;-78
2021/06/01 03:02:50;;;;;;;10.67;4.80;;;11.50;99.90;;;;;;4936199;29;20792;-78
2021/06/01 03:05:17;;;;;;;7.63;5.00;;;11.40;99.90;;;;;;4936073;29;20441;-79
2021/06/01 03:07:51;;;;;;;8.40;5.57;;;11.30;99.90;;;;;;4936504;29;20792;-78
2021/06/01 03:10:18;;;;;;;10.17;4.60;;;11.30;99.90;;;;;;4935135;29;20433;-78
2021/06/01 03:12:50;;;;;;;5.23;4.00;;;11.30;99.90;;;;;;4934721;29;20460;-83
2021/06/01 03:15:16;;;;;;;10.93;5.13;;;11.20;99.90;;;;;;4936269;29;20501;-77
2021/06/01 03:17:42;;;;;;;8.20;4.57;;;11.20;99.90;;;;;;4936226;29;20782;-78
2021/06/01 03:20:09;;;;;;;7.53;4.83;;;11.10;99.90;;;;;;4936215;29;21040;-78
2021/06/01 03:22:35;;;;;;;6.93;4.47;;;11.10;99.90;;;;;;4936215;29;20392;-78
2021/06/01 03:25:00;;;;;;;10.70;5.30;;;11.00;99.90;;;;;;4935898;29;20412;-79
2021/06/01 03:27:26;;;;;;;7.03;5.07;;;11.00;99.90;;;;;;4936227;29;20421;-78
2021/06/01 03:29:52;;;;;;;11.57;5.00;;;11.00;99.90;;;;;;4936116;29;20189;-78
2021/06/01 03:32:17;;;;;;;8.20;4.80;;;10.90;99.90;;;;;;4936128;29;20196;-78
2021/06/01 03:34:43;;;;;;;12.93;5.03;;;10.90;99.90;;;;;;4935731;29;20201;-78
2021/06/01 03:37:09;;;;;;;11.00;5.50;;;10.80;99.90;;;;;;4936120;29;20177;-78
2021/06/01 03:39:34;;;;;;;7.20;5.10;;;10.70;99.90;;;;;;4936250;29;20553;-77
2021/06/01 03:42:00;;;;;;;10.33;5.10;;;10.60;99.90;;;;;;4936074;29;20188;-81
2021/06/01 03:44:26;;;;;;;8.47;5.40;;;10.60;99.90;;;;;;4935555;29;20220;-78
2021/06/01 03:46:52;;;;;;;7.10;4.50;;;10.60;99.90;;;;;;4936069;29;20193;-79
2021/06/01 03:49:17;;;;;;;7.87;4.70;;;10.60;99.90;;;;;;4936218;29;20481;-77
2021/06/01 03:51:43;;;;;;;7.87;4.20;;;10.60;99.90;;;;;;4935943;29;20594;-78
2021/06/01 03:54:09;;;;;;;8.50;5.27;;;10.50;99.90;;;;;;4935401;29;20221;-78
2021/06/01 03:56:38;;;;;;;6.93;4.73;;;10.40;99.90;;;;;;4935827;29;20178;-79
2021/06/01 03:59:05;;;;;;;9.63;5.10;;;10.40;99.90;;;;;;4935825;29;20185;-78
2021/06/01 04:01:31;;;;;;;6.73;4.63;;;10.40;99.90;;;;;;4936047;29;20881;-78
2021/06/01 04:03:56;;;;;;;5.47;4.30;;;10.50;99.90;;;;;;4934326;29;20468;-78
2021/06/01 04:06:22;;;;;;;5.90;4.30;;;10.60;99.90;;;;;;4934579;29;20915;-78
2021/06/01 04:08:48;;;;;;;4.70;4.20;;;10.60;99.90;;;;;;4934875;29;20177;-78
2021/06/01 04:11:13;;;;;;;5.13;3.93;;;10.60;99.90;;;;;;4935889;29;20186;-78
2021/06/01 04:13:39;;;;;;;7.60;5.40;;;10.60;99.90;;;;;;4935533;29;20209;-78
2021/06/01 04:16:05;;;;;;;8.80;4.53;;;10.60;99.90;;;;;;4935721;29;20655;-77
2021/06/01 04:18:30;;;;;;;7.80;4.50;;;10.60;99.90;;;;;;4938430;29;20181;-77
2021/06/01 04:20:56;;;;;;;4.77;4.27;;;10.60;99.90;;;;;;4939308;29;20547;-77
2021/06/01 04:23:22;;;;;;;5.27;4.27;;;10.60;99.90;;;;;;4939115;29;20569;-77
2021/06/01 04:25:47;;;;;;;8.57;4.13;;;10.60;99.90;;;;;;4922576;29;20196;-77
2021/06/01 04:28:13;;;;;;;14.93;4.70;;;10.70;99.90;;;;;;4938489;29;20192;-78
2021/06/01 04:30:43;;;;;;;6.63;3.70;;;10.70;99.90;;;;;;4939062;29;20604;-78
2021/06/01 04:33:10;;;;;;;5.40;4.00;;;10.70;99.90;;;;;;4938831;29;20184;-78
2021/06/01 04:35:35;;;;;;;8.53;3.70;;;10.70;99.90;;;;;;4939194;29;20181;-78
2021/06/01 04:38:01;;;;;;;3.83;3.33;;;10.70;99.90;;;;;;4939183;29;20488;-78
2021/06/01 04:40:27;;;;;;;5.93;4.10;;;10.70;99.90;;;;;;4937836;29;20223;-77
2021/06/01 04:42:53;;;;;;;5.23;4.00;;;10.70;99.90;;;;;;4938716;29;20638;-78
2021/06/01 04:45:18;;;;;;;6.17;3.80;;;10.80;99.90;;;;;;4938826;29;20219;-77
2021/06/01 04:47:44;;;;;;;5.20;4.07;;;10.90;99.90;;;;;;4939099;29;20937;-78
2021/06/01 04:50:10;;;;;;;5.10;3.70;;;11.00;99.90;;;;;;4938829;29;20200;-78
2021/06/01 04:52:36;;;;;;;6.47;4.40;;;11.10;99.90;;;;;;4938677;29;20236;-78
2021/06/01 04:55:03;;;;;;;5.60;3.87;;;11.20;99.90;;;;;;4938522;29;20527;-78
2021/06/01 04:57:28;;;;;;;9.30;4.13;;;11.30;99.90;;;;;;4937898;29;20610;-78
2021/06/01 04:59:54;;;;;;;5.60;4.03;;;11.50;99.90;;;;;;4938842;29;20467;-78
2021/06/01 05:02:20;;;;;;;4.80;3.93;;;11.70;99.90;;;;;;4938628;29;20192;-78
2021/06/01 05:04:45;;;;;;;7.53;4.60;;;11.90;99.90;;;;;;4938735;29;20588;-80
2021/06/01 05:07:12;;;;;;;6.27;3.97;;;11.90;99.90;;;;;;4938777;29;20186;-77
2021/06/01 05:09:38;;;;;;;9.73;4.27;;;12.00;99.90;;;;;;4938624;29;20188;-78
2021/06/01 05:12:05;;;;;;;6.67;4.40;;;12.10;99.90;;;;;;4937423;29;20884;-78
2021/06/01 05:14:31;;;;;;;10.93;4.80;;;12.20;99.90;;;;;;4938249;29;20508;-78
2021/06/01 05:16:56;;;;;;;7.33;3.90;;;12.30;99.90;;;;;;4938463;29;20421;-78
2021/06/01 05:19:22;;;;;;;7.10;4.10;;;12.40;99.90;;;;;;4939009;29;20658;-77
2021/06/01 05:21:47;;;;;;;6.83;4.67;;;12.50;99.90;;;;;;4939555;29;20174;-78
2021/06/01 05:24:13;;;;;;;8.33;3.90;;;12.60;99.90;;;;;;4945017;29;20675;-78
2021/06/01 05:26:40;;;;;;;6.73;4.20;;;12.60;99.90;;;;;;4938435;29;20229;-78
2021/06/01 05:29:05;;;;;;;5.10;3.93;;;12.70;99.90;;;;;;4937730;29;20187;-77
2021/06/01 05:31:48;;;;;;;4.80;3.70;;;12.70;99.90;;;;;;4937030;29;20421;-78
2021/06/01 05:34:14;;;;;;;7.60;3.87;;;12.80;99.90;;;;;;4937863;29;20228;-78
2021/06/01 05:36:40;;;;;;;7.70;3.23;;;13.00;99.90;;;;;;4936976;29;20822;-78
2021/06/01 05:39:12;;;;;;;5.50;4.00;;;13.10;99.90;;;;;;4937818;29;20476;-78
2021/06/01 05:41:38;;;;;;;5.53;3.57;;;13.20;99.90;;;;;;4938047;29;20445;-78
2021/06/01 05:44:04;;;;;;;7.53;4.90;;;13.20;99.90;;;;;;4937786;29;20426;-77
2021/06/01 05:46:29;;;;;;;5.03;3.97;;;13.30;99.90;;;;;;4937792;29;20193;-78
2021/06/01 05:48:56;;;;;;;8.67;4.70;;;13.30;99.90;;;;;;4936932;29;20876;-77
2021/06/01 05:51:32;;;;;;;9.07;4.77;;;13.40;99.90;;;;;;4937789;29;20424;-78
2021/06/01 05:53:58;;;;;;;7.00;3.63;;;13.50;99.90;;;;;;4937404;29;20209;-77
2021/06/01 05:56:23;;;;;;;9.43;4.40;;;13.60;99.90;;;;;;4936549;29;20421;-78
2021/06/01 05:58:49;;;;;;;8.30;4.23;;;13.70;99.90;;;;;;4937587;29;20595;-77
2021/06/01 06:01:15;;;;;;;4.90;3.70;;;13.70;99.90;;;;;;4936121;29;20217;-79
2021/06/01 06:03:40;;;;;;;6.43;3.83;;;13.80;99.90;;;;;;4937346;29;20445;-78
2021/06/01 06:06:11;;;;;;;7.00;3.80;;;14.00;99.90;;;;;;4937746;29;20602;-77
2021/06/01 06:08:37;;;;;;;5.13;4.17;;;14.10;99.90;;;;;;4936251;29;20232;-76
2021/06/01 06:11:03;;;;;;;4.67;3.80;;;14.10;99.90;;;;;;4937448;29;20388;-79
2021/06/01 06:13:29;;;;;;;8.43;4.10;;;14.20;99.90;;;;;;4937010;29;20427;-78
2021/06/01 06:15:54;;;;;;;7.40;4.00;;;14.30;99.90;;;;;;4937306;29;20268;-77
2021/06/01 06:18:38;;;;;;;6.30;3.80;;;14.50;99.90;;;;;;4937268;29;20193;-78
2021/06/01 06:21:06;;;;;;;6.70;4.20;;;14.50;99.90;;;;;;4937233;29;20212;-78
2021/06/01 06:23:34;;;;;;;4.57;4.00;;;14.60;99.90;;;;;;4936605;29;20965;-78
2021/06/01 06:26:00;;;;;;;8.07;4.60;;;14.70;99.90;;;;;;4937011;29;20392;-78
2021/06/01 06:28:26;;;;;;;16.50;4.40;;;14.70;99.90;;;;;;4937094;29;20433;-77
2021/06/01 06:30:52;;;;;;;5.90;4.33;;;14.90;99.90;;;;;;4919858;29;20433;-78
2021/06/01 06:33:17;;;;;;;9.43;4.00;;;15.00;99.90;;;;;;4936703;29;20443;-78
2021/06/01 06:35:43;;;;;;;6.63;3.80;;;15.10;99.90;;;;;;4936864;29;20240;-77
2021/06/01 06:38:08;;;;;;;7.20;5.07;;;15.30;99.90;;;;;;4937077;29;20551;-79
2021/06/01 06:40:34;;;;;;;8.20;4.33;;;15.40;99.90;;;;;;4936237;29;20214;-78
2021/06/01 06:43:00;;;;;;;9.20;4.70;;;15.40;99.90;;;;;;4936366;29;20181;-78
2021/06/01 06:45:28;;;;;;;7.00;4.50;;;15.60;99.90;;;;;;4935326;29;20658;-78
2021/06/01 06:48:06;;;;;;;5.63;3.83;;;15.70;99.90;;;;;;4936690;29;20192;-77
2021/06/01 06:50:33;;;;;;;4.73;3.83;;;15.70;99.90;;;;;;4935365;29;20404;-79
2021/06/01 06:53:00;;;;;;;5.13;3.50;;;15.90;99.90;;;;;;4936276;29;20425;-77
2021/06/01 06:55:26;;;;;;;6.50;3.43;;;15.90;99.90;;;;;;4936720;29;20392;-79
2021/06/01 06:57:52;;;;;;;8.33;3.40;;;16.20;99.90;;;;;;4936545;29;20399;-79
2021/06/01 07:00:20;;;;;;;5.57;3.50;;;16.30;99.90;;;;;;4934906;29;20213;-77
2021/06/01 07:02:46;;;;;;;4.53;3.30;;;16.40;99.90;;;;;;4936178;29;20174;-78
2021/06/01 07:05:18;;;;;;;4.37;3.63;;;16.50;99.90;;;;;;4936268;29;20416;-75
2021/06/01 07:07:46;;;;;;;5.00;3.30;;;16.60;99.90;;;;;;4936450;29;20762;-76
2021/06/01 07:10:12;;;;;;;8.17;3.83;;;16.60;99.90;;;;;;4936342;29;20433;-76
2021/06/01 07:12:40;;;;;;;7.33;3.60;;;16.90;99.90;;;;;;4936197;29;20425;-75
2021/06/01 07:15:12;;;;;;;3.50;3.20;;;17.00;99.90;;;;;;4934910;29;20457;-76
2021/06/01 07:17:41;;;;;;;4.33;3.17;;;17.10;99.90;;;;;;4935924;29;20410;-75
2021/06/01 07:20:08;;;;;;;3.70;3.10;;;17.20;99.90;;;;;;4935942;29;20469;-76
2021/06/01 07:22:34;;;;;;;5.90;3.30;;;17.40;99.90;;;;;;4935990;29;20477;-76
2021/06/01 07:25:00;;;;;;;6.63;3.77;;;17.50;99.90;;;;;;4935421;29;20437;-76
2021/06/01 07:27:26;;;;;;;6.53;3.37;;;17.50;99.90;;;;;;4936157;29;20427;-76
2021/06/01 07:29:52;;;;;;;5.47;3.67;;;17.50;99.90;;;;;;4936077;29;20173;-76
2021/06/01 07:32:18;;;;;;;5.50;3.23;;;17.60;99.90;;;;;;4936100;29;20178;-77
2021/06/01 07:34:43;;;;;;;6.10;3.37;;;17.80;99.90;;;;;;4935827;29;20541;-76
2021/06/01 07:37:09;;;;;;;5.20;3.50;;;18.00;99.90;;;;;;4935001;29;20186;-77
2021/06/01 07:39:35;;;;;;;3.90;3.43;;;18.10;99.90;;;;;;4935904;29;20272;-75
2021/06/01 07:42:00;;;;;;;5.23;3.63;;;18.20;99.90;;;;;;4934571;29;20181;-76
2021/06/01 07:44:29;;;;;;;3.53;2.97;;;18.50;99.90;;;;;;4934230;29;20218;-77
2021/06/01 07:46:55;;;;;;;8.33;4.07;;;18.70;99.90;;;;;;4934132;29;20277;-77
2021/06/01 07:49:20;;;;;;;17.30;3.70;;;18.70;99.90;;;;;;4934013;29;21013;-76
2021/06/01 07:51:46;;;;;;;4.33;3.37;;;18.70;99.90;;;;;;4936963;29;20193;-77
2021/06/01 07:54:12;;;;;;;5.77;3.67;;;19.00;99.90;;;;;;4939341;29;20686;-76
2021/06/01 07:56:38;;;;;;;6.47;4.10;;;19.00;99.90;;;;;;4939113;29;20229;-76
2021/06/01 07:59:03;;;;;;;7.03;4.20;;;19.10;99.90;;;;;;4939264;29;20193;-76
2021/06/01 08:01:29;;;;;;;7.47;3.80;;;19.40;99.90;;;;;;4939515;29;20224;-77
2021/06/01 08:03:56;;;;;;;5.80;3.30;;;19.80;99.90;;;;;;4939339;29;20284;-76
2021/06/01 08:06:23;;;;;;;7.50;4.10;;;20.10;99.90;;;;;;4939644;29;20265;-78
2021/06/01 08:08:49;;;;;;;5.40;3.70;;;20.10;99.90;;;;;;4938971;29;20906;-74
2021/06/01 08:11:15;;;;;;;4.90;2.93;;;20.20;99.90;;;;;;4939527;29;20448;-74
2021/06/01 08:13:40;;;;;;;3.87;3.47;;;20.20;99.90;;;;;;4953854;29;20706;-74
2021/06/01 08:16:06;;;;;;;8.00;3.77;;;20.10;99.90;;;;;;4939361;29;20193;-74
2021/06/01 08:18:37;;;;;;;5.47;3.90;;;20.60;99.90;;;;;;4939334;29;20221;-75
2021/06/01 08:23:32;;;;;;;5.50;2.90;;;20.60;99.90;;;;;;4938998;29;20445;-75
2021/06/01 08:25:57;;;;;;;4.83;2.67;;;20.80;99.90;;;;;;4939256;29;20840;-74
2021/06/01 08:28:23;;;;;;;5.13;3.00;;;21.00;99.90;;;;;;4939035;29;20429;-74
2021/06/01 08:30:49;;;;;;;4.20;2.67;;;20.90;99.90;;;;;;4939153;29;20178;-74
2021/06/01 08:33:14;;;;;;;4.10;3.03;;;21.20;99.90;;;;;;4938797;29;20248;-74
2021/06/01 08:35:40;;;;;;;5.07;2.63;;;21.20;99.90;;;;;;4953870;29;20182;-74
2021/06/01 08:38:06;;;;;;;2.90;2.00;;;21.30;99.90;;;;;;4939389;29;20185;-74
2021/06/01 08:40:32;;;;;;;4.53;2.60;;;21.70;99.90;;;;;;4939144;29;20606;-74
2021/06/01 08:42:57;;;;;;;3.53;2.40;;;21.60;99.90;;;;;;4938191;29;20181;-74
2021/06/01 08:45:23;;;;;;;3.00;2.10;;;21.60;99.90;;;;;;4938641;29;20204;-72
2021/06/01 08:47:49;;;;;;;7.10;2.60;;;21.90;99.90;;;;;;4938845;29;20178;-73
2021/06/01 08:50:15;;;;;;;2.90;2.40;;;22.00;99.90;;;;;;4938866;29;20759;-73
2021/06/01 08:52:41;;;;;;;2.37;1.87;;;22.20;99.90;;;;;;4939703;29;20417;-73
2021/06/01 08:55:10;;;;;;;2.80;2.07;;;22.20;99.90;;;;;;4938433;29;20309;-73
2021/06/01 08:57:37;;;;;;;3.03;2.43;;;22.30;99.90;;;;;;4938606;29;20520;-73
2021/06/01 09:00:04;;;;;;;2.67;2.43;;;22.30;99.90;;;;;;4938304;29;20469;-76
2021/06/01 09:02:30;;;;;;;2.80;2.20;;;22.70;99.90;;;;;;4937650;29;20449;-75
2021/06/01 09:05:01;;;;;;;2.40;1.87;;;22.90;99.90;;;;;;4937688;29;20492;-75
2021/06/01 09:21:19;;;;;;;2.07;1.70;;;23.70;99.90;;;;;;4938395;29;20476;-75
2021/06/01 09:23:51;;;;;;;2.60;2.20;;;23.60;99.90;;;;;;4937771;29;20516;-75
2021/06/01 09:29:14;;;;;;;5.13;1.93;;;23.90;99.90;;;;;;4938149;29;20905;-73
2021/06/01 09:31:40;;;;;;;1.97;1.80;;;23.80;99.90;;;;;;4937961;29;20429;-73
2021/06/01 09:34:09;;;;;;;1.93;1.73;;;23.80;99.90;;;;;;4937700;29;20440;-73
2021/06/01 09:36:35;;;;;;;5.80;2.70;;;24.20;99.90;;;;;;4937878;29;20268;-73
2021/06/01 09:39:07;;;;;;;2.83;1.57;;;23.90;99.50;;;;;;4937790;29;20449;-73
2021/06/01 09:41:33;;;;;;;2.00;1.80;;;24.00;98.40;;;;;;4937886;29;20508;-73
2021/06/01 09:44:00;;;;;;;2.10;1.90;;;24.10;97.40;;;;;;4937476;29;20429;-73
2021/06/01 09:46:28;;;;;;;2.90;2.27;;;23.90;98.40;;;;;;4937695;29;20596;-74
2021/06/01 09:49:15;;;;;;;1.90;1.80;;;24.20;98.50;;;;;;4937651;29;20412;-74
2021/06/01 09:51:45;;;;;;;2.10;2.00;;;23.80;97.90;;;;;;4927408;29;20426;-73
2021/06/01 09:54:30;;;;;;;2.07;1.87;;;24.40;97.70;;;;;;4937416;29;20485;-74
2021/06/01 09:56:56;;;;;;;3.30;1.90;;;25.00;99.20;;;;;;4936871;29;20424;-74
2021/06/01 09:59:21;;;;;;;3.43;2.00;;;25.00;98.80;;;;;;4936713;29;20775;-74
2021/06/01 10:01:47;;;;;;;3.00;1.57;;;25.40;95.00;;;;;;4936802;29;20461;-73
2021/06/01 10:04:27;;;;;;;3.40;2.07;;;25.40;94.90;;;;;;4933365;29;20245;-73
2021/06/01 10:06:53;;;;;;;2.10;1.90;;;25.30;94.80;;;;;;4936968;29;20173;-75
2021/06/01 10:09:20;;;;;;;2.60;1.83;;;25.40;95.60;;;;;;4936960;29;20453;-74
2021/06/01 10:11:57;;;;;;;1.70;1.60;;;25.80;91.60;;;;;;4952123;29;20508;-75
2021/06/01 10:14:24;;;;;;;5.40;2.10;;;25.50;91.30;;;;;;4936382;29;20445;-76
2021/06/01 10:16:50;;;;;;;2.03;1.83;;;25.70;94.40;;;;;;4936696;29;20468;-75
2021/06/01 10:19:16;;;;;;;1.90;1.80;;;26.10;91.30;;;;;;4936484;29;20421;-74
2021/06/01 10:21:52;;;;;;;6.60;1.90;;;26.10;91.10;;;;;;4936503;29;20496;-75
2021/06/01 10:24:17;;;;;;;2.27;2.00;;;26.50;89.40;;;;;;4935960;29;20213;-75
2021/06/01 10:26:43;;;;;;;2.03;1.90;;;26.50;88.30;;;;;;4936960;29;20492;-76
2021/06/01 10:29:09;;;;;;;2.43;1.87;;;26.00;86.60;;;;;;4935587;29;20444;-75
2021/06/01 10:31:36;;;;;;;2.40;1.80;;;26.40;91.60;;;;;;4936801;29;20177;-77
2021/06/01 10:34:03;;;;;;;3.97;1.70;;;26.60;90.30;;;;;;4936573;29;20260;-75
2021/06/01 10:50:36;;;;;;;5.17;1.60;;;26.70;78.90;;;;;;4937018;29;20408;-75
2021/06/01 10:53:14;;;;;;;2.43;1.80;;;27.40;79.80;;;;;;4937049;29;20537;-75
2021/06/01 10:55:49;;;;;;;4.20;1.90;;;27.80;78.30;;;;;;4936609;29;20934;-75
2021/06/01 10:58:26;;;;;;;1.80;1.70;;;28.10;75.30;;;;;;4936571;29;20901;-74
2021/06/01 11:01:53;;;;;;;4.17;2.13;;;27.90;72.30;;;;;;4936345;29;20468;-74
2021/06/01 11:04:05;;;;;;;1.53;1.43;;;27.90;74.20;;;;;;4939202;29;20941;-74
2021/06/01 11:06:59;;;;;;;2.50;1.50;;;29.00;74.90;;;;;;4936136;29;20420;-74
2021/06/01 11:09:34;;;;;;;2.27;2.07;;;29.30;72.90;;;;;;4936294;29;20409;-75
2021/06/01 11:12:27;;;;;;;2.23;2.03;;;29.60;69.30;;;;;;4936423;29;20437;-75
2021/06/01 11:14:59;;;;;;;2.13;1.93;;;29.50;67.50;;;;;;4934391;29;20445;-74
2021/06/01 11:17:36;;;;;;;1.97;1.60;;;29.40;68.00;;;;;;4936217;29;20933;-75
2021/06/01 11:20:10;;;;;;;3.13;1.83;;;29.30;65.60;;;;;;4934943;29;20559;-75
2021/06/01 11:22:42;;;;;;;2.37;1.70;;;29.40;66.30;;;;;;4936206;29;20413;-75
2021/06/01 11:33:29;;;;;;;1.97;1.87;;;29.90;64.30;;;;;;4935500;29;20436;-73
2021/06/01 11:36:03;;;;;;;2.83;1.60;;;30.80;60.30;;;;;;4935251;29;20409;-73
2021/06/01 11:39:12;;;;;;;2.07;1.90;;;30.20;58.10;;;;;;4935627;29;20427;-73
2021/06/01 11:44:17;;;;;;;2.10;1.90;;;31.00;57.70;;;;;;4935189;29;20471;-73
2021/06/01 11:52:03;;;;;;;1.83;1.73;;;31.40;57.60;;;;;;4933510;29;20970;-73
2021/06/01 11:54:29;;;;;;;2.70;1.67;;;30.70;56.20;;;;;;4935075;29;20461;-73
2021/06/01 11:57:15;;;;;;;2.00;1.90;;;31.50;56.30;;;;;;4935238;29;20834;-73
2021/06/01 12:02:51;;;;;;;3.57;1.93;;;31.50;54.50;;;;;;4935587;29;20510;-73
2021/06/01 12:13:47;;;;;;;2.50;1.80;;;31.40;52.10;;;;;;4934130;29;20469;-74
2021/06/01 12:19:12;;;;;;;3.50;1.93;;;31.90;52.50;;;;;;4930663;29;20521;-73
2021/06/01 12:21:49;;;;;;;3.20;1.70;;;31.80;51.10;;;;;;4935402;29;20547;-74
2021/06/01 12:24:22;;;;;;;2.93;2.07;;;31.60;52.50;;;;;;4934739;29;20427;-74
2021/06/01 12:32:16;;;;;;;2.50;1.87;;;32.10;50.80;;;;;;4934606;29;20913;-73
2021/06/01 12:43:57;;;;;;;3.83;1.60;;;32.40;50.00;;;;;;4938814;29;20974;-73
2021/06/01 13:14:42;;;;;;;2.23;1.60;;;33.60;48.60;;;;;;4938378;29;20456;-73
2021/06/01 13:36:43;;;;;;;1.80;1.70;;;34.40;44.30;;;;;;4937901;29;20426;-74
2021/06/01 13:56:08;;;;;;;1.60;1.50;;;35.10;42.60;;;;;;4937889;29;20449;-75
2021/06/01 13:58:51;;;;;;;2.03;1.63;;;35.50;42.40;;;;;;4937571;29;20977;-76
2021/06/01 14:37:14;;;;;;;2.73;1.77;;;35.70;39.10;;;;;;4937024;29;20441;-75
2021/06/01 15:05:09;;;;;;;2.00;1.80;;;36.20;39.50;;;;;;4915376;29;20481;-74
2021/06/01 16:13:40;;;;;;;3.20;1.90;;;35.20;36.90;;;;;;4938390;29;20440;-73
2021/06/01 16:21:54;;;;;;;1.27;1.17;;;35.00;37.10;;;;;;4930765;29;20483;-76
2021/06/01 16:29:55;;;;;;;1.40;1.30;;;34.80;37.90;;;;;;4918796;29;20452;-73
2021/06/01 17:05:29;;;;;;;1.13;1.03;;;33.90;38.40;;;;;;4918941;29;20808;-74
2021/06/01 17:11:03;;;;;;;3.00;1.90;;;34.00;37.50;;;;;;4915212;29;20410;-74
2021/06/01 17:13:33;;;;;;;1.70;1.60;;;33.60;37.50;;;;;;4937791;29;20452;-74
2021/06/01 17:15:59;;;;;;;2.97;1.60;;;33.60;37.30;;;;;;4938173;29;20420;-74
2021/06/01 17:18:56;;;;;;;1.87;1.60;;;33.20;38.60;;;;;;4938218;29;20899;-73
2021/06/01 17:24:15;;;;;;;1.70;1.60;;;33.10;38.80;;;;;;4937357;29;20441;-73
2021/06/01 17:35:00;;;;;;;2.63;1.70;;;32.90;40.90;;;;;;4937694;29;20504;-72
2021/06/01 17:37:26;;;;;;;1.53;1.43;;;32.70;39.20;;;;;;4932568;29;20437;-73
2021/06/01 17:39:53;;;;;;;1.87;1.70;;;32.50;39.60;;;;;;4935977;29;20821;-74
2021/06/01 17:42:21;;;;;;;2.13;1.50;;;32.50;40.10;;;;;;4935476;29;20477;-74
2021/06/01 17:44:49;;;;;;;1.70;1.50;;;32.70;39.50;;;;;;4935410;29;20850;-73
2021/06/01 17:47:21;;;;;;;3.23;2.43;;;32.60;39.90;;;;;;4936150;29;20435;-73
2021/06/01 17:49:50;;;;;;;1.87;1.70;;;32.40;40.40;;;;;;4936606;29;20460;-73
2021/06/01 17:52:23;;;;;;;1.70;1.60;;;32.20;40.80;;;;;;4935320;29;20429;-75
2021/06/01 17:54:51;;;;;;;1.80;1.70;;;31.80;41.50;;;;;;4936155;29;20946;-74
2021/06/01 17:57:18;;;;;;;1.70;1.60;;;31.90;40.80;;;;;;4934530;29;20433;-75
2021/06/01 17:59:44;;;;;;;1.70;1.60;;;31.80;40.70;;;;;;4949974;29;20806;-75
2021/06/01 18:02:12;;;;;;;4.17;1.97;;;31.80;41.00;;;;;;4935193;29;20460;-74
2021/06/01 18:04:38;;;;;;;2.23;1.63;;;31.50;40.40;;;;;;4934068;29;20273;-76
2021/06/01 18:07:11;;;;;;;1.90;1.80;;;31.30;40.80;;;;;;4934626;29;20759;-74
2021/06/01 18:10:24;;;;;;;2.50;1.30;;;31.40;41.00;;;;;;4935629;29;20194;-74
2021/06/01 18:36:20;;;;;;;1.83;1.73;;;29.30;43.10;;;;;;4929930;29;20787;-76
2021/06/01 19:42:17;;;;;;;4.90;2.77;;;24.40;59.60;;;;;;4936412;29;20432;-80
2021/06/01 19:52:10;;;;;;;6.60;3.57;;;22.80;78.10;;;;;;4940008;29;20491;-77
2021/06/01 19:54:38;;;;;;;3.40;3.00;;;22.30;82.40;;;;;;4939473;29;20441;-78
2021/06/01 19:57:04;;;;;;;3.90;3.13;;;22.20;86.10;;;;;;4954857;29;20185;-77
2021/06/01 19:59:30;;;;;;;5.03;3.10;;;22.20;89.80;;;;;;4939871;29;20440;-79
2021/06/01 20:01:56;;;;;;;4.30;2.80;;;22.00;90.90;;;;;;4939847;29;20461;-79
2021/06/01 20:04:22;;;;;;;3.30;3.00;;;21.60;92.10;;;;;;4938337;29;20690;-79